Time;durP1;ratioP1;P1;durP2;ratioP2;P2;SDS_P1;SDS_P2;PMS_P1;PMS_P2;Temp;Humidity;BMP_temperature;BMP_pressure;BME280_temperature;BME280_humidity;BME280_pressure;Samples;Min_cycle;Max_cycle;Signal;HPM_P1;HPM_P2
2022/12/01 00:02:05;;;;;;;58.70;20.33;;;;;2.80;96713.00;;;;8500085;27;20197;-78
2022/12/01 00:06:39;;;;;;;54.93;18.53;;;;;2.70;96705.00;;;;8499137;27;20197;-79
2022/12/01 00:10:44;;;;;;;52.90;18.07;;;;;2.70;96702.00;;;;8500023;27;20662;-78
2022/12/01 00:15:18;;;;;;;56.63;19.63;;;;;2.70;96705.00;;;;8496499;27;20197;-79
2022/12/01 00:19:24;;;;;;;55.30;18.83;;;;;2.70;96701.00;;;;8499661;27;20203;-79
2022/12/01 00:23:27;;;;;;;56.03;19.37;;;;;2.70;96698.00;;;;8496959;27;20194;-79
2022/12/01 00:27:35;;;;;;;62.83;19.67;;;;;2.80;96697.00;;;;8497276;27;20619;-79
2022/12/01 00:32:05;;;;;;;53.97;19.97;;;;;2.80;96697.00;;;;8496787;27;20235;-79
2022/12/01 00:36:09;;;;;;;61.43;20.47;;;;;2.80;96707.00;;;;8497686;27;20566;-79
2022/12/01 00:40:46;;;;;;;53.53;18.07;;;;;2.80;96708.00;;;;8497921;27;20637;-79
2022/12/01 00:44:51;;;;;;;53.40;18.73;;;;;2.80;96708.00;;;;8499716;27;20201;-79
2022/12/01 00:48:54;;;;;;;54.27;18.37;;;;;2.90;96710.00;;;;8498380;28;20218;-79
2022/12/01 00:52:57;;;;;;;60.83;19.70;;;;;2.90;96710.00;;;;8499500;28;20205;-79
2022/12/01 00:57:00;;;;;;;65.33;19.97;;;;;2.90;96705.00;;;;8497808;27;20203;-79
2022/12/01 01:01:39;;;;;;;41.63;16.07;;;;;2.90;96708.00;;;;8499023;27;20577;-79
2022/12/01 01:05:43;;;;;;;55.43;19.97;;;;;2.90;96711.00;;;;8499654;28;20276;-78
2022/12/01 01:10:17;;;;;;;56.53;19.80;;;;;2.90;96699.00;;;;8498070;27;20221;-78
2022/12/01 01:14:20;;;;;;;54.07;19.70;;;;;2.90;96713.00;;;;8498368;27;20551;-78
2022/12/01 01:18:57;;;;;;;62.53;19.27;;;;;2.90;96712.00;;;;8498877;27;20212;-78
2022/12/01 01:23:01;;;;;;;61.90;21.43;;;;;2.90;96710.00;;;;8497224;28;20197;-78
2022/12/01 01:27:35;;;;;;;51.67;17.43;;;;;2.80;96712.00;;;;8499352;28;20606;-79
2022/12/01 01:31:39;;;;;;;59.83;19.53;;;;;2.80;96716.00;;;;8497150;28;20285;-78
2022/12/01 01:36:20;;;;;;;63.50;20.57;;;;;2.70;96714.00;;;;8502574;27;20222;-79
2022/12/01 01:40:25;;;;;;;66.93;21.03;;;;;2.70;96714.00;;;;8505031;27;20194;-78
2022/12/01 01:44:59;;;;;;;49.77;16.07;;;;;2.60;96713.00;;;;8504954;27;20193;-78
2022/12/01 01:54:06;;;;;;;61.57;18.23;;;;;2.40;96711.00;;;;8503829;27;20200;-78
2022/12/01 01:58:40;;;;;;;66.67;21.00;;;;;2.40;96703.00;;;;8503132;27;20193;-78
2022/12/01 02:02:45;;;;;;;73.47;22.60;;;;;2.40;96709.00;;;;8503948;27;20194;-79
2022/12/01 02:06:48;;;;;;;61.97;19.73;;;;;2.40;96701.00;;;;8503375;27;20575;-79
2022/12/01 02:11:06;;;;;;;66.33;18.93;;;;;2.40;96694.00;;;;8504387;27;20220;-78
2022/12/01 02:15:23;;;;;;;67.27;20.33;;;;;2.40;96693.00;;;;8503282;27;20191;-78
2022/12/01 02:19:44;;;;;;;60.67;18.80;;;;;2.40;96689.00;;;;8503585;27;20237;-78
2022/12/01 02:24:35;;;;;;;68.40;20.57;;;;;2.50;96687.00;;;;8503407;27;20220;-78
2022/12/01 02:29:04;;;;;;;74.17;20.33;;;;;2.50;96680.00;;;;8502660;27;20562;-78
2022/12/01 02:33:26;;;;;;;59.27;20.50;;;;;2.50;96686.00;;;;8502563;27;20270;-78
2022/12/01 02:37:34;;;;;;;62.93;21.03;;;;;2.50;96684.00;;;;8502774;27;20195;-78
2022/12/01 02:42:08;;;;;;;65.50;20.37;;;;;2.50;96683.00;;;;8502268;27;20331;-78
2022/12/01 02:46:15;;;;;;;75.60;23.70;;;;;2.50;96697.00;;;;8502727;27;20204;-78
2022/12/01 02:50:52;;;;;;;60.67;18.53;;;;;2.40;96687.00;;;;8502479;27;20229;-78
2022/12/01 02:54:56;;;;;;;64.63;20.10;;;;;2.40;96697.00;;;;8502422;27;20523;-78
2022/12/01 02:59:30;;;;;;;62.20;19.13;;;;;2.30;96699.00;;;;8501619;27;20200;-78
2022/12/01 03:03:47;;;;;;;64.87;19.57;;;;;2.40;96689.00;;;;8501951;27;20217;-78
2022/12/01 03:08:01;;;;;;;69.03;20.93;;;;;2.30;96671.00;;;;8501712;27;20535;-78
2022/12/01 03:12:14;;;;;;;63.00;18.20;;;;;2.30;96678.00;;;;8500970;27;20220;-78
2022/12/01 03:16:47;;;;;;;72.40;22.10;;;;;2.20;96678.00;;;;8502010;27;21036;-77
2022/12/01 03:21:18;;;;;;;62.83;19.03;;;;;2.20;96666.00;;;;8501517;27;20654;-77
2022/12/01 03:25:25;;;;;;;64.30;19.87;;;;;2.20;96678.00;;;;8500141;27;20212;-77
2022/12/01 03:29:32;;;;;;;65.77;20.70;;;;;2.30;96679.00;;;;8500869;27;20224;-76
2022/12/01 03:34:05;;;;;;;67.27;21.43;;;;;2.40;96680.00;;;;8500537;27;20201;-75
2022/12/01 03:38:14;;;;;;;69.70;19.93;;;;;2.40;96669.00;;;;8500598;27;20616;-77
2022/12/01 03:42:48;;;;;;;76.73;23.60;;;;;2.50;96668.00;;;;8500172;27;20193;-77
2022/12/01 03:47:28;;;;;;;70.23;20.10;;;;;2.50;96667.00;;;;8500943;27;20564;-76
2022/12/01 03:52:06;;;;;;;73.23;21.80;;;;;2.60;96661.00;;;;8500911;27;20221;-76
2022/12/01 03:56:10;;;;;;;65.87;20.97;;;;;2.70;96669.00;;;;8500338;27;20634;-76
2022/12/01 04:00:52;;;;;;;72.17;21.50;;;;;2.80;96669.00;;;;8499432;27;20200;-76
2022/12/01 04:05:23;;;;;;;66.93;20.63;;;;;2.80;96669.00;;;;8500236;27;20250;-76
2022/12/01 04:09:27;;;;;;;63.93;20.87;;;;;2.90;96668.00;;;;8500359;27;20228;-76
2022/12/01 04:14:05;;;;;;;69.90;22.20;;;;;3.00;96679.00;;;;8499268;27;20246;-76
2022/12/01 04:18:38;;;;;;;68.13;21.37;;;;;3.00;96685.00;;;;8500191;27;20631;-76
2022/12/01 04:33:05;;;;;;;66.40;20.00;;;;;2.90;96679.00;;;;8498752;27;20225;-76
2022/12/01 04:37:42;;;;;;;62.43;18.33;;;;;2.90;96671.00;;;;8499959;27;20201;-77
2022/12/01 04:41:47;;;;;;;78.23;22.53;;;;;2.80;96679.00;;;;8498148;27;20209;-76
2022/12/01 04:45:50;;;;;;;52.73;17.60;;;;;2.80;96667.00;;;;8498791;27;20197;-76
2022/12/01 04:49:53;;;;;;;64.87;19.90;;;;;2.80;96667.00;;;;8497963;28;20221;-76
2022/12/01 04:53:56;;;;;;;70.20;21.90;;;;;2.80;96662.00;;;;8498954;27;20200;-76
2022/12/01 04:58:36;;;;;;;84.80;25.47;;;;;2.80;96664.00;;;;8498077;28;20250;-76
2022/12/01 05:02:42;;;;;;;79.13;21.73;;;;;2.80;96668.00;;;;8498973;28;20661;-75
2022/12/01 05:06:45;;;;;;;74.40;23.57;;;;;2.80;96667.00;;;;8498674;28;20270;-75
2022/12/01 05:11:22;;;;;;;68.67;20.47;;;;;2.70;96673.00;;;;8503068;27;20234;-75
2022/12/01 05:15:26;;;;;;;71.47;21.30;;;;;2.80;96673.00;;;;8505946;27;20190;-75
2022/12/01 05:23:51;;;;;;;69.27;20.30;;;;;2.70;96681.00;;;;8504431;27;20178;-75
2022/12/01 05:28:27;;;;;;;75.83;22.77;;;;;2.60;96674.00;;;;8505194;27;20573;-75
2022/12/01 05:32:32;;;;;;;76.40;21.07;;;;;2.60;96675.00;;;;8502849;27;20278;-75
2022/12/01 05:37:06;;;;;;;64.00;19.13;;;;;2.50;96669.00;;;;8503804;27;20197;-75
2022/12/01 05:41:10;;;;;;;63.63;18.97;;;;;2.50;96667.00;;;;8504163;27;20196;-75
2022/12/01 05:45:13;;;;;;;56.37;18.47;;;;;2.50;96663.00;;;;8504858;27;20234;-74
2022/12/01 05:49:51;;;;;;;63.90;18.83;;;;;2.40;96660.00;;;;8503815;27;20547;-74
2022/12/01 05:53:54;;;;;;;78.00;22.83;;;;;2.40;96664.00;;;;8504636;27;20204;-73
2022/12/01 05:57:57;;;;;;;77.97;22.90;;;;;2.40;96666.00;;;;8504400;27;20645;-73
2022/12/01 06:02:00;;;;;;;76.63;21.50;;;;;2.40;96664.00;;;;8503722;27;20201;-74
2022/12/01 06:06:39;;;;;;;59.57;17.77;;;;;2.40;96678.00;;;;8503778;27;20192;-73
2022/12/01 06:11:13;;;;;;;50.50;16.47;;;;;2.40;96678.00;;;;8502804;27;20225;-73
2022/12/01 06:15:16;;;;;;;64.30;19.73;;;;;2.40;96683.00;;;;8504420;27;20197;-73
2022/12/01 06:19:19;;;;;;;63.77;19.70;;;;;2.40;96675.00;;;;8503341;27;20211;-73
2022/12/01 06:23:57;;;;;;;63.80;19.10;;;;;2.40;96675.00;;;;8502960;27;20204;-73
2022/12/01 06:28:01;;;;;;;62.20;19.10;;;;;2.40;96684.00;;;;8502430;27;20200;-72
2022/12/01 06:32:04;;;;;;;72.37;22.13;;;;;2.40;96675.00;;;;8502831;27;20233;-72
2022/12/01 06:36:38;;;;;;;64.47;18.27;;;;;2.50;96678.00;;;;8502383;27;20241;-72
2022/12/01 06:40:43;;;;;;;73.00;22.47;;;;;2.50;96684.00;;;;8502294;27;20198;-72
2022/12/01 06:44:46;;;;;;;84.70;23.50;;;;;2.60;96680.00;;;;8502651;27;20620;-72
2022/12/01 06:48:49;;;;;;;74.83;21.60;;;;;2.60;96692.00;;;;8502324;27;20193;-72
2022/12/01 06:52:52;;;;;;;46.30;16.87;;;;;2.60;96694.00;;;;8502279;27;20733;-72
2022/12/01 06:56:57;;;;;;;73.60;21.10;;;;;2.60;96692.00;;;;8502292;27;20201;-72
2022/12/01 07:01:00;;;;;;;59.23;18.77;;;;;2.70;96693.00;;;;8501411;27;20198;-72
2022/12/01 07:05:04;;;;;;;67.63;22.43;;;;;2.70;96688.00;;;;8501925;27;20186;-72
2022/12/01 07:09:07;;;;;;;67.97;21.93;;;;;2.70;96697.00;;;;8501973;27;20194;-72
2022/12/01 07:13:12;;;;;;;84.97;22.30;;;;;2.70;96698.00;;;;8502084;27;20226;-72
2022/12/01 07:17:15;;;;;;;61.90;20.73;;;;;2.80;96690.00;;;;8500584;27;20276;-72
2022/12/01 07:21:18;;;;;;;68.43;20.77;;;;;2.80;96693.00;;;;8501591;27;20192;-72
2022/12/01 07:25:21;;;;;;;76.93;22.17;;;;;2.80;96695.00;;;;8501286;27;20526;-72
2022/12/01 07:29:25;;;;;;;79.43;26.40;;;;;2.90;96696.00;;;;8500453;27;20213;-72
2022/12/01 07:33:28;;;;;;;61.00;19.97;;;;;2.90;96697.00;;;;8499747;27;20228;-72
2022/12/01 07:38:05;;;;;;;71.23;21.47;;;;;3.00;96710.00;;;;8500812;27;20535;-72
2022/12/01 07:42:08;;;;;;;74.73;23.67;;;;;3.00;96713.00;;;;8499643;27;20194;-72
2022/12/01 07:46:15;;;;;;;67.20;21.13;;;;;3.10;96708.00;;;;8500666;27;20193;-72
2022/12/01 07:50:25;;;;;;;77.90;23.50;;;;;3.10;96705.00;;;;8500049;27;20189;-72
2022/12/01 07:54:28;;;;;;;66.90;21.50;;;;;3.20;96716.00;;;;8500785;27;20573;-73
2022/12/01 07:58:32;;;;;;;80.83;24.20;;;;;3.20;96709.00;;;;8499943;27;20268;-73
2022/12/01 08:02:36;;;;;;;63.77;21.93;;;;;3.30;96704.00;;;;8500450;27;20193;-73
2022/12/01 08:07:10;;;;;;;56.67;21.77;;;;;3.30;96711.00;;;;8498932;27;20188;-73
2022/12/01 08:11:15;;;;;;;64.23;21.97;;;;;3.40;96711.00;;;;8500463;27;20247;-73
2022/12/01 08:15:19;;;;;;;61.30;18.40;;;;;3.50;96704.00;;;;8498779;27;20192;-74
2022/12/01 08:19:57;;;;;;;57.17;20.13;;;;;3.50;96713.00;;;;8500022;27;20527;-74
2022/12/01 08:24:00;;;;;;;67.70;22.87;;;;;3.50;96708.00;;;;8499298;27;20535;-74
2022/12/01 08:28:03;;;;;;;66.67;23.67;;;;;3.50;96709.00;;;;8498945;27;20191;-74
2022/12/01 08:32:07;;;;;;;58.03;19.70;;;;;3.50;96711.00;;;;8498605;27;20283;-74
2022/12/01 08:36:11;;;;;;;62.10;22.00;;;;;3.60;96718.00;;;;8499779;27;20661;-74
2022/12/01 08:40:14;;;;;;;65.77;21.17;;;;;3.60;96721.00;;;;8498572;27;20654;-75
2022/12/01 08:44:18;;;;;;;60.30;22.60;;;;;3.60;96721.00;;;;8498447;27;20629;-75
2022/12/01 08:48:56;;;;;;;60.90;20.70;;;;;3.60;96726.00;;;;8499058;27;20201;-75
2022/12/01 08:53:01;;;;;;;58.60;20.30;;;;;3.70;96728.00;;;;8497764;28;20316;-75
2022/12/01 08:57:04;;;;;;;54.50;20.27;;;;;3.70;96729.00;;;;8497308;28;20275;-75
2022/12/01 09:01:52;;;;;;;61.73;21.77;;;;;3.70;96731.00;;;;8500371;28;20196;-76
2022/12/01 09:06:00;;;;;;;63.80;21.43;;;;;3.80;96733.00;;;;8497583;28;20246;-76
2022/12/01 09:10:31;;;;;;;62.97;22.90;;;;;3.90;96729.00;;;;8498187;27;20193;-77
2022/12/01 09:14:37;;;;;;;61.97;23.73;;;;;4.10;96740.00;;;;8497618;28;20221;-77
2022/12/01 09:18:40;;;;;;;59.33;23.63;;;;;4.10;96739.00;;;;8498658;27;20247;-77
2022/12/01 09:22:43;;;;;;;55.00;19.67;;;;;4.20;96739.00;;;;8498480;28;20208;-77
2022/12/01 09:26:46;;;;;;;60.40;20.93;;;;;4.20;96732.00;;;;8498469;27;20531;-77
2022/12/01 09:31:23;;;;;;;50.27;19.87;;;;;4.20;96740.00;;;;8498384;28;20243;-78
2022/12/01 09:35:28;;;;;;;52.13;20.60;;;;;4.20;96735.00;;;;8497332;28;20591;-78
2022/12/01 09:39:31;;;;;;;51.87;20.50;;;;;4.20;96732.00;;;;8497785;27;20253;-77
2022/12/01 09:44:12;;;;;;;51.40;21.57;;;;;4.20;96729.00;;;;8499052;28;20612;-78
2022/12/01 09:48:25;;;;;;;52.33;21.30;;;;;4.20;96725.00;;;;8497739;27;20273;-78
2022/12/01 09:52:43;;;;;;;49.83;21.13;;;;;4.30;96732.00;;;;8498771;28;20221;-78
2022/12/01 09:57:04;;;;;;;49.73;20.20;;;;;4.50;96726.00;;;;8501250;27;20190;-77
2022/12/01 10:01:14;;;;;;;50.53;20.23;;;;;4.60;96728.00;;;;8504476;27;20198;-78
2022/12/01 10:05:21;;;;;;;55.83;21.03;;;;;4.70;96722.00;;;;8503643;27;20277;-78
2022/12/01 10:10:01;;;;;;;50.47;21.30;;;;;4.70;96721.00;;;;8503372;27;20247;-78
2022/12/01 10:14:06;;;;;;;46.27;17.23;;;;;4.70;96722.00;;;;8503136;27;20218;-78
2022/12/01 10:18:27;;;;;;;52.17;21.07;;;;;4.70;96714.00;;;;8503234;27;20224;-77
2022/12/01 10:22:49;;;;;;;45.67;18.70;;;;;4.80;96706.00;;;;8502466;27;20196;-77
2022/12/01 10:27:12;;;;;;;48.23;20.33;;;;;4.80;96702.00;;;;8502908;27;20185;-78
2022/12/01 10:31:20;;;;;;;42.43;17.23;;;;;4.80;96708.00;;;;8502672;27;20210;-78
2022/12/01 10:35:28;;;;;;;42.93;19.37;;;;;4.80;96712.00;;;;8502724;27;20182;-77
2022/12/01 10:39:34;;;;;;;39.47;15.47;;;;;4.80;96704.00;;;;8503252;27;20749;-78
2022/12/01 10:44:10;;;;;;;46.37;21.57;;;;;4.80;96705.00;;;;8502719;27;20174;-77
2022/12/01 10:48:15;;;;;;;40.73;19.33;;;;;4.90;96697.00;;;;8502380;27;20194;-78
2022/12/01 10:52:32;;;;;;;54.53;23.60;;;;;5.10;96701.00;;;;8502732;27;20312;-78
2022/12/01 10:56:56;;;;;;;45.43;19.13;;;;;5.40;96701.00;;;;8502185;27;20593;-78
2022/12/01 11:01:03;;;;;;;36.87;16.63;;;;;5.60;96698.00;;;;8501787;27;20272;-78
2022/12/01 11:05:22;;;;;;;40.03;16.57;;;;;5.80;96697.00;;;;8501888;27;20190;-77
2022/12/01 11:09:45;;;;;;;39.87;18.97;;;;;5.70;96692.00;;;;8500156;27;20239;-77
2022/12/01 11:13:48;;;;;;;49.50;20.50;;;;;5.70;96698.00;;;;8502240;27;20302;-77
2022/12/01 11:18:00;;;;;;;47.57;19.23;;;;;5.80;96681.00;;;;8501790;27;20715;-77
2022/12/01 11:22:19;;;;;;;46.37;19.87;;;;;5.80;96689.00;;;;8501138;27;20190;-78
2022/12/01 11:26:38;;;;;;;43.80;21.50;;;;;5.80;96681.00;;;;8500581;27;20544;-78
2022/12/01 11:30:41;;;;;;;47.23;19.73;;;;;5.90;96676.00;;;;8500963;27;20210;-77
2022/12/01 11:34:51;;;;;;;43.70;19.33;;;;;5.90;96668.00;;;;8500677;27;20724;-75
2022/12/01 11:39:00;;;;;;;41.07;18.63;;;;;6.00;96677.00;;;;8500852;27;20186;-77
2022/12/01 11:43:06;;;;;;;47.03;21.00;;;;;6.00;96667.00;;;;8500440;27;20193;-78
2022/12/01 11:47:57;;;;;;;45.20;19.17;;;;;6.10;96675.00;;;;8500822;27;20190;-77
2022/12/01 11:52:18;;;;;;;39.27;17.60;;;;;6.10;96665.00;;;;8500101;27;20214;-78
2022/12/01 11:56:36;;;;;;;41.03;17.97;;;;;6.00;96672.00;;;;8498401;27;20198;-78
2022/12/01 12:00:45;;;;;;;41.27;18.33;;;;;6.10;96667.00;;;;8499792;27;20190;-77
2022/12/01 12:05:09;;;;;;;42.07;19.77;;;;;6.10;96669.00;;;;8498565;27;20202;-77
2022/12/01 12:09:28;;;;;;;38.30;18.40;;;;;6.10;96668.00;;;;8499398;27;20194;-77
2022/12/01 12:13:57;;;;;;;38.27;16.63;;;;;6.10;96668.00;;;;8498805;27;20213;-77
2022/12/01 12:18:15;;;;;;;36.73;16.17;;;;;6.10;96665.00;;;;8499597;27;20178;-77
2022/12/01 12:22:41;;;;;;;38.47;18.20;;;;;6.20;96667.00;;;;8499258;27;20190;-75
2022/12/01 12:26:56;;;;;;;36.93;17.07;;;;;6.20;96654.00;;;;8499065;27;20190;-77
2022/12/01 12:31:10;;;;;;;40.77;17.63;;;;;6.20;96652.00;;;;8497874;27;20794;-77
2022/12/01 12:35:27;;;;;;;35.80;16.77;;;;;6.30;96655.00;;;;8498053;27;20271;-77
2022/12/01 12:40:05;;;;;;;33.97;15.90;;;;;6.40;96653.00;;;;8495846;27;20198;-78
2022/12/01 12:44:36;;;;;;;33.40;15.33;;;;;6.40;96655.00;;;;8500625;27;20202;-79
2022/12/01 12:49:03;;;;;;;34.50;16.90;;;;;6.50;96651.00;;;;8498327;27;20205;-78
2022/12/01 12:53:25;;;;;;;39.63;18.80;;;;;6.50;96651.00;;;;8498258;27;20233;-78
2022/12/01 12:57:34;;;;;;;40.90;17.23;;;;;6.50;96646.00;;;;8498912;27;20197;-79
2022/12/01 13:02:11;;;;;;;38.17;17.63;;;;;6.50;96657.00;;;;8499291;28;20523;-78
2022/12/01 13:06:42;;;;;;;37.93;17.53;;;;;6.50;96643.00;;;;8498074;27;20194;-78
2022/12/01 13:10:50;;;;;;;38.80;17.93;;;;;6.60;96644.00;;;;8498827;28;20684;-78
2022/12/01 13:14:59;;;;;;;37.57;16.97;;;;;6.60;96647.00;;;;8498057;28;20218;-78
2022/12/01 13:19:11;;;;;;;36.97;17.83;;;;;6.70;96646.00;;;;8498767;28;20242;-78
2022/12/01 13:23:18;;;;;;;39.00;17.33;;;;;6.80;96644.00;;;;8498359;27;20186;-78
2022/12/01 13:27:49;;;;;;;37.43;17.40;;;;;6.80;96642.00;;;;8498434;27;20224;-78
2022/12/01 13:31:54;;;;;;;41.43;18.20;;;;;6.90;96634.00;;;;8501999;27;20248;-78
2022/12/01 13:36:00;;;;;;;36.45;18.08;;;;;6.90;96634.00;;;;8505227;27;20266;-79
2022/12/01 13:40:35;;;;;;;38.37;17.83;;;;;6.80;96632.00;;;;8502896;27;20190;-78
2022/12/01 13:45:16;;;;;;;35.57;17.03;;;;;6.90;96630.00;;;;8504188;27;20535;-79
2022/12/01 13:49:48;;;;;;;34.03;17.67;;;;;6.80;96629.00;;;;8503615;27;20198;-78
2022/12/01 13:54:22;;;;;;;36.13;16.00;;;;;6.90;96622.00;;;;8504339;27;20238;-79
2022/12/01 13:58:58;;;;;;;36.47;17.43;;;;;6.80;96617.00;;;;8502772;27;20197;-78
2022/12/01 14:03:37;;;;;;;33.73;16.00;;;;;6.80;96636.00;;;;8503529;27;20293;-79
2022/12/01 14:08:13;;;;;;;34.83;16.02;;;;;6.80;96634.00;;;;8503175;27;20198;-79
2022/12/01 14:12:46;;;;;;;30.47;14.70;;;;;6.90;96636.00;;;;8502705;27;20187;-79
2022/12/01 14:17:27;;;;;;;28.97;14.17;;;;;6.90;96638.00;;;;8502793;27;20537;-78
2022/12/01 14:21:45;;;;;;;25.67;13.70;;;;;6.90;96636.00;;;;8504280;27;20524;-78
2022/12/01 14:26:13;;;;;;;28.70;13.37;;;;;7.00;96633.00;;;;8501872;27;20258;-78
2022/12/01 14:30:53;;;;;;;29.30;14.37;;;;;7.00;96636.00;;;;8502776;27;20206;-78
2022/12/01 14:35:06;;;;;;;27.53;14.27;;;;;7.10;96634.00;;;;8502681;27;20214;-78
2022/12/01 14:39:14;;;;;;;27.10;13.77;;;;;7.10;96632.00;;;;8502032;27;20270;-79
2022/12/01 14:44:04;;;;;;;25.10;12.90;;;;;7.00;96626.00;;;;8501589;27;20547;-79
2022/12/01 14:48:28;;;;;;;32.13;14.27;;;;;6.80;96630.00;;;;8501411;27;20520;-77
2022/12/01 14:58:05;;;;;;;23.97;12.50;;;;;6.70;96639.00;;;;8500840;27;20231;-77
2022/12/01 15:02:39;;;;;;;25.60;13.00;;;;;6.60;96629.00;;;;8501998;27;20575;-79
2022/12/01 15:07:13;;;;;;;27.87;13.83;;;;;6.60;96630.00;;;;8499314;27;20198;-78
2022/12/01 15:11:52;;;;;;;28.93;13.17;;;;;6.50;96630.00;;;;8501625;27;20198;-79
2022/12/01 15:16:03;;;;;;;28.33;13.33;;;;;6.40;96627.00;;;;8501265;27;20214;-78
2022/12/01 15:20:27;;;;;;;28.37;12.93;;;;;6.30;96616.00;;;;8501514;27;20755;-79
2022/12/01 15:24:44;;;;;;;34.00;14.50;;;;;6.30;96612.00;;;;8497825;27;20627;-78
2022/12/01 15:29:21;;;;;;;27.83;12.97;;;;;6.20;96619.00;;;;8501445;27;20186;-79
2022/12/01 15:34:12;;;;;;;29.40;14.03;;;;;6.20;96615.00;;;;8498226;27;20544;-79
2022/12/01 15:38:37;;;;;;;31.63;13.83;;;;;6.10;96620.00;;;;8499602;27;20198;-80
2022/12/01 15:43:16;;;;;;;30.23;14.37;;;;;6.10;96624.00;;;;8500941;27;20186;-80
2022/12/01 15:47:35;;;;;;;28.00;14.20;;;;;6.10;96614.00;;;;8500435;27;20650;-79
2022/12/01 15:52:11;;;;;;;29.90;15.27;;;;;6.10;96613.00;;;;8500374;27;20257;-81
2022/12/01 15:56:14;;;;;;;32.83;15.57;;;;;6.10;96617.00;;;;8498681;27;20214;-82
2022/12/01 16:00:55;;;;;;;31.87;15.60;;;;;6.00;96622.00;;;;8499777;27;20194;-82
2022/12/01 16:05:25;;;;;;;32.23;16.00;;;;;6.00;96612.00;;;;8499330;27;20209;-81
2022/12/01 16:09:34;;;;;;;39.40;18.63;;;;;5.90;96611.00;;;;8498930;27;20216;-81
2022/12/01 16:13:43;;;;;;;34.93;18.57;;;;;5.90;96608.00;;;;8498355;27;20222;-81
2022/12/01 16:18:24;;;;;;;38.23;19.50;;;;;5.90;96610.00;;;;8499415;27;20174;-82
2022/12/01 16:22:27;;;;;;;40.27;18.70;;;;;5.80;96610.00;;;;8498405;27;20190;-81
2022/12/01 16:26:33;;;;;;;40.47;19.63;;;;;5.80;96611.00;;;;8499682;27;20634;-81
2022/12/01 16:31:05;;;;;;;44.60;19.90;;;;;5.80;96608.00;;;;8498901;27;20210;-82
2022/12/01 16:35:39;;;;;;;42.53;20.03;;;;;5.80;96618.00;;;;8499222;27;20707;-82
2022/12/01 16:40:17;;;;;;;41.43;19.40;;;;;5.80;96617.00;;;;8498262;27;20623;-81
2022/12/01 16:44:53;;;;;;;45.53;21.07;;;;;5.80;96623.00;;;;8498970;27;20243;-82
2022/12/01 16:49:32;;;;;;;42.50;21.00;;;;;5.70;96623.00;;;;8497676;27;20197;-82
2022/12/01 16:53:35;;;;;;;48.37;21.97;;;;;5.70;96627.00;;;;8498474;28;20206;-83
2022/12/01 16:57:38;;;;;;;52.97;22.40;;;;;5.70;96618.00;;;;8498351;27;20247;-83
2022/12/01 17:01:41;;;;;;;44.50;22.07;;;;;5.70;96631.00;;;;8498690;27;20276;-82
2022/12/01 17:05:46;;;;;;;48.80;22.87;;;;;5.70;96632.00;;;;8502446;27;20205;-81
2022/12/01 17:10:21;;;;;;;50.73;23.97;;;;;5.60;96631.00;;;;8505688;27;20650;-81
2022/12/01 17:14:24;;;;;;;49.03;22.13;;;;;5.50;96628.00;;;;8504312;27;20233;-83
2022/12/01 17:18:27;;;;;;;46.10;22.57;;;;;5.50;96621.00;;;;8505959;27;20573;-82
2022/12/01 17:22:32;;;;;;;48.37;23.37;;;;;5.50;96626.00;;;;8504532;27;20194;-82
2022/12/01 17:27:05;;;;;;;54.30;24.83;;;;;5.50;96631.00;;;;8504476;27;20539;-82
2022/12/01 17:31:09;;;;;;;56.87;26.43;;;;;5.50;96632.00;;;;8504088;27;20214;-82
2022/12/01 17:35:13;;;;;;;47.67;23.30;;;;;5.50;96636.00;;;;8504165;27;20274;-82
2022/12/01 17:39:51;;;;;;;50.13;23.17;;;;;5.50;96636.00;;;;8503968;27;20194;-80
2022/12/01 17:43:54;;;;;;;48.60;23.97;;;;;5.50;96639.00;;;;8504253;27;20217;-79
2022/12/01 17:47:57;;;;;;;55.73;24.70;;;;;5.50;96640.00;;;;8503567;27;20235;-80
2022/12/01 17:52:00;;;;;;;51.37;25.63;;;;;5.40;96639.00;;;;8504479;27;20190;-79
2022/12/01 17:56:06;;;;;;;57.00;25.53;;;;;5.40;96637.00;;;;8504171;27;20209;-82
2022/12/01 18:00:40;;;;;;;55.93;25.00;;;;;5.40;96639.00;;;;8503518;27;20186;-82
2022/12/01 18:04:43;;;;;;;50.37;24.20;;;;;5.40;96635.00;;;;8504038;27;20530;-82
2022/12/01 18:08:47;;;;;;;56.30;23.80;;;;;5.40;96642.00;;;;8504470;27;20277;-82
2022/12/01 18:12:52;;;;;;;55.27;25.03;;;;;5.40;96647.00;;;;8502766;27;20190;-81
2022/12/01 18:16:55;;;;;;;56.23;24.90;;;;;5.50;96647.00;;;;8502131;27;20229;-81
2022/12/01 18:20:58;;;;;;;57.10;25.87;;;;;5.40;96639.00;;;;8503117;27;20194;-81
2022/12/01 18:25:01;;;;;;;52.90;24.63;;;;;5.40;96640.00;;;;8502664;27;20194;-81
2022/12/01 18:29:07;;;;;;;51.17;25.00;;;;;5.40;96651.00;;;;8503530;27;20508;-82
2022/12/01 18:33:42;;;;;;;55.53;24.60;;;;;5.40;96647.00;;;;8503307;27;20726;-82
2022/12/01 18:37:45;;;;;;;56.67;26.77;;;;;5.40;96654.00;;;;8502301;27;20278;-82
2022/12/01 18:41:48;;;;;;;48.83;24.40;;;;;5.40;96636.00;;;;8502509;27;20190;-82
2022/12/01 18:45:53;;;;;;;51.13;23.60;;;;;5.40;96652.00;;;;8502833;27;20216;-82
2022/12/01 18:49:56;;;;;;;43.40;20.63;;;;;5.40;96647.00;;;;8502537;27;20577;-82
2022/12/01 18:54:34;;;;;;;47.40;22.33;;;;;5.30;96651.00;;;;8502270;27;20206;-82
2022/12/01 18:58:37;;;;;;;43.03;19.20;;;;;5.30;96643.00;;;;8501851;27;20214;-83
2022/12/01 19:03:11;;;;;;;50.93;22.07;;;;;5.30;96641.00;;;;8499343;27;20247;-82
2022/12/01 19:07:15;;;;;;;44.40;20.33;;;;;5.30;96647.00;;;;8501787;27;20577;-82
2022/12/01 19:11:57;;;;;;;43.10;21.57;;;;;5.30;96645.00;;;;8500636;27;20239;-79
2022/12/01 19:16:25;;;;;;;47.63;21.67;;;;;5.30;96654.00;;;;8497429;27;20322;-82
2022/12/01 19:21:02;;;;;;;45.37;21.60;;;;;5.30;96649.00;;;;8501454;27;20198;-83
2022/12/01 19:25:41;;;;;;;48.47;21.27;;;;;5.30;96654.00;;;;8500765;27;20704;-82
2022/12/01 19:30:15;;;;;;;48.17;20.83;;;;;5.30;96642.00;;;;8497294;27;20282;-84
2022/12/01 19:34:52;;;;;;;46.73;21.33;;;;;5.30;96641.00;;;;8500585;27;20193;-84
2022/12/01 19:38:56;;;;;;;42.37;20.30;;;;;5.30;96643.00;;;;8499494;27;20329;-83
2022/12/01 19:43:32;;;;;;;49.40;22.10;;;;;5.30;96636.00;;;;8497780;27;20193;-81
2022/12/01 19:48:09;;;;;;;53.70;21.43;;;;;5.30;96644.00;;;;8500172;27;20190;-81
2022/12/01 19:52:13;;;;;;;50.70;21.60;;;;;5.30;96652.00;;;;8499096;27;20229;-81
2022/12/01 19:56:49;;;;;;;51.57;21.40;;;;;5.30;96654.00;;;;8499341;27;20228;-81
2022/12/01 20:06:34;;;;;;;51.30;22.43;;;;;5.20;96651.00;;;;8497498;27;20289;-82
2022/12/01 20:11:08;;;;;;;54.03;24.53;;;;;5.20;96654.00;;;;8500267;27;20194;-82
2022/12/01 20:15:44;;;;;;;45.33;22.47;;;;;5.10;96647.00;;;;8498284;27;20210;-81
2022/12/01 20:20:21;;;;;;;51.10;21.20;;;;;5.00;96639.00;;;;8498044;27;20200;-78
2022/12/01 20:24:58;;;;;;;48.87;21.43;;;;;5.00;96651.00;;;;8498584;27;20205;-80
2022/12/01 20:29:36;;;;;;;50.73;22.40;;;;;4.90;96650.00;;;;8498146;27;20235;-80
2022/12/01 20:34:11;;;;;;;53.60;23.47;;;;;4.90;96650.00;;;;8498825;27;20217;-80
2022/12/01 20:38:45;;;;;;;53.73;23.80;;;;;4.90;96654.00;;;;8498722;27;20573;-81
2022/12/01 20:43:22;;;;;;;59.97;24.53;;;;;5.00;96649.00;;;;8499219;27;20197;-80
2022/12/01 20:48:00;;;;;;;52.07;22.60;;;;;5.00;96650.00;;;;8498689;27;20190;-79
2022/12/01 20:52:38;;;;;;;60.00;25.53;;;;;4.90;96641.00;;;;8498051;27;20229;-79
2022/12/01 20:56:41;;;;;;;54.43;22.90;;;;;4.90;96643.00;;;;8498002;27;20266;-79
2022/12/01 21:00:45;;;;;;;56.20;22.77;;;;;4.90;96650.00;;;;8498848;28;20197;-79
2022/12/01 21:05:23;;;;;;;61.20;23.87;;;;;4.80;96644.00;;;;8497472;28;20250;-80
2022/12/01 21:09:26;;;;;;;59.23;24.00;;;;;4.70;96655.00;;;;8498545;28;20193;-79
2022/12/01 21:13:40;;;;;;;67.20;25.13;;;;;4.70;96653.00;;;;8497270;27;20655;-79
2022/12/01 21:17:48;;;;;;;67.30;27.33;;;;;4.70;96653.00;;;;8498535;27;20222;-80
2022/12/01 21:22:24;;;;;;;64.90;26.03;;;;;4.70;96655.00;;;;8497621;27;20190;-80
2022/12/01 21:26:27;;;;;;;70.57;26.57;;;;;4.70;96653.00;;;;8498167;28;20201;-79
2022/12/01 21:30:30;;;;;;;65.37;25.30;;;;;4.70;96656.00;;;;8497765;27;20243;-79
2022/12/01 21:35:08;;;;;;;71.37;26.73;;;;;4.70;96653.00;;;;8497168;27;20190;-80
2022/12/01 21:39:49;;;;;;;67.23;26.77;;;;;4.60;96650.00;;;;8496975;28;20201;-80
2022/12/01 21:43:55;;;;;;;64.13;24.43;;;;;4.50;96658.00;;;;8497788;28;20592;-82
2022/12/01 21:48:29;;;;;;;76.43;25.97;;;;;4.50;96653.00;;;;8497859;28;20186;-84